Time,TemperatureF,DewpointF,PressureIn,WindDirection,WindDirectionDegrees,WindSpeedMPH,WindSpeedGustMPH,Humidity,HourlyPrecipIn,Conditions,Clouds,dailyrainin,SoftwareType,DateUTC
2013-11-18 00:03:00,56.2,49.0,29.65,WNW,297,1.0,7.0,77,0.00,,,0.00,weatherlink.com 1.10,2013-11-18 05:03:00,
2013-11-18 00:18:00,56.5,49.0,29.62,WNW,300,1.0,7.0,76,0.00,,,0.00,weatherlink.com 1.10,2013-11-18 05:18:00,
2013-11-18 00:33:00,56.4,49.0,29.61,SSE,165,3.0,10.0,76,0.00,,,0.00,weatherlink.com 1.10,2013-11-18 05:33:00,
2013-11-18 00:48:00,56.3,49.0,29.59,NW,326,3.0,9.0,76,0.00,,,0.00,weatherlink.com 1.10,2013-11-18 05:48:00,
2013-11-18 01:03:00,56.3,49.0,29.56,NW,305,1.0,8.0,77,0.00,,,0.00,weatherlink.com 1.10,2013-11-18 06:03:00,
2013-11-18 01:18:00,56.3,49.0,29.57,SSE,155,3.0,8.0,77,0.00,,,0.00,weatherlink.com 1.10,2013-11-18 06:18:00,
2013-11-18 01:34:00,56.3,49.0,29.54,South,183,5.0,11.0,77,0.00,,,0.00,weatherlink.com 1.10,2013-11-18 06:34:00,
2013-11-18 01:49:00,56.7,49.0,29.51,WNW,300,2.0,14.0,75,0.00,,,0.00,weatherlink.com 1.10,2013-11-18 06:49:00,
2013-11-18 02:04:00,57.6,50.0,29.50,SSE,153,2.0,12.0,76,0.00,,,0.00,weatherlink.com 1.10,2013-11-18 07:04:00,
2013-11-18 02:19:00,57.9,51.0,29.48,NNE,22,10.0,13.0,77,0.00,,,0.00,weatherlink.com 1.10,2013-11-18 07:19:00,
2013-11-18 02:34:00,57.6,51.0,29.47,SW,226,6.0,14.0,78,0.00,,,0.00,weatherlink.com 1.10,2013-11-18 07:34:00,
2013-11-18 02:49:00,57.7,51.0,29.46,WNW,301,2.0,13.0,79,0.00,,,0.00,weatherlink.com 1.10,2013-11-18 07:49:00,
2013-11-18 03:04:00,56.9,52.0,29.44,SSE,148,7.0,20.0,84,0.01,,,0.01,weatherlink.com 1.10,2013-11-18 08:04:00,
2013-11-18 03:19:00,56.1,52.0,29.42,NE,44,2.0,11.0,87,0.01,,,0.01,weatherlink.com 1.10,2013-11-18 08:19:00,
2013-11-18 03:34:00,55.8,53.0,29.40,ESE,107,5.0,9.0,89,0.03,,,0.03,weatherlink.com 1.10,2013-11-18 08:34:00,
2013-11-18 03:49:00,55.9,53.0,29.38,WNW,293,5.0,10.0,89,0.06,,,0.06,weatherlink.com 1.10,2013-11-18 08:49:00,
2013-11-18 04:04:00,56.3,54.0,29.38,West,259,6.0,11.0,90,0.08,,,0.09,weatherlink.com 1.10,2013-11-18 09:04:00,
2013-11-18 04:19:00,56.5,54.0,29.37,NE,50,4.0,8.0,90,0.10,,,0.11,weatherlink.com 1.10,2013-11-18 09:19:00,
2013-11-18 04:34:00,57.1,54.0,29.36,NE,46,3.0,12.0,90,0.08,,,0.11,weatherlink.com 1.10,2013-11-18 09:34:00,
2013-11-18 04:49:00,57.0,55.0,29.35,ESE,111,3.0,11.0,91,0.05,,,0.12,weatherlink.com 1.10,2013-11-18 09:49:00,
2013-11-18 05:04:00,56.8,54.0,29.36,West,260,3.0,10.0,91,0.05,,,0.14,weatherlink.com 1.10,2013-11-18 10:04:00,
2013-11-18 05:19:00,54.3,52.0,29.42,West,271,4.0,17.0,90,0.09,,,0.20,weatherlink.com 1.10,2013-11-18 10:19:00,
2013-11-18 05:34:00,51.7,48.0,29.44,West,259,6.0,15.0,87,0.11,,,0.22,weatherlink.com 1.10,2013-11-18 10:34:00,
2013-11-18 05:49:00,49.8,47.0,29.42,SSE,153,5.0,7.0,90,0.13,,,0.25,weatherlink.com 1.10,2013-11-18 10:49:00,
2013-11-18 06:04:00,49.0,46.0,29.43,WNW,297,3.0,13.0,89,0.12,,,0.26,weatherlink.com 1.10,2013-11-18 11:04:00,
2013-11-18 06:19:00,48.5,46.0,29.41,WNW,288,6.0,8.0,90,0.06,,,0.26,weatherlink.com 1.10,2013-11-18 11:19:00,
2013-11-18 06:34:00,48.6,46.0,29.40,South,187,2.0,5.0,89,0.03,,,0.26,weatherlink.com 1.10,2013-11-18 11:34:00,
2013-11-18 06:49:00,48.9,46.0,29.41,WNW,293,11.0,11.0,89,0.01,,,0.26,weatherlink.com 1.10,2013-11-18 11:49:00,
2013-11-18 07:05:00,49.0,46.0,29.41,South,172,9.0,9.0,88,0.00,,,0.26,weatherlink.com 1.10,2013-11-18 12:05:00,
2013-11-18 07:20:00,48.7,45.0,29.41,WSW,243,2.0,6.0,88,0.00,,,0.26,weatherlink.com 1.10,2013-11-18 12:20:00,
2013-11-18 07:35:00,48.0,45.0,29.43,West,267,5.0,21.0,90,0.01,,,0.27,weatherlink.com 1.10,2013-11-18 12:35:00,
2013-11-18 07:50:00,47.5,45.0,29.44,SW,222,3.0,9.0,91,0.01,,,0.27,weatherlink.com 1.10,2013-11-18 12:50:00,
2013-11-18 08:05:00,47.3,45.0,29.45,West,262,2.0,10.0,90,0.01,,,0.27,weatherlink.com 1.10,2013-11-18 13:05:00,
2013-11-18 08:20:00,47.2,44.0,29.44,West,262,3.0,8.0,89,0.01,,,0.27,weatherlink.com 1.10,2013-11-18 13:20:00,
2013-11-18 08:35:00,47.2,44.0,29.45,West,259,4.0,9.0,88,0.00,,,0.27,weatherlink.com 1.10,2013-11-18 13:35:00,
2013-11-18 08:50:00,47.1,44.0,29.45,WNW,285,4.0,7.0,87,0.00,,,0.27,weatherlink.com 1.10,2013-11-18 13:50:00,
2013-11-18 09:05:00,47.1,44.0,29.45,SSW,194,5.0,9.0,87,0.00,,,0.27,weatherlink.com 1.10,2013-11-18 14:05:00,
2013-11-18 09:20:00,46.9,43.0,29.46,WNW,300,5.0,6.0,87,0.00,,,0.27,weatherlink.com 1.10,2013-11-18 14:20:00,
2013-11-18 09:35:00,46.1,43.0,29.46,West,264,1.0,7.0,89,0.01,,,0.28,weatherlink.com 1.10,2013-11-18 14:35:00,
2013-11-18 09:50:00,45.4,42.0,29.46,West,276,4.0,6.0,88,0.01,,,0.28,weatherlink.com 1.10,2013-11-18 14:50:00,
2013-11-18 10:05:00,45.1,42.0,29.47,WNW,288,3.0,7.0,87,0.01,,,0.28,weatherlink.com 1.10,2013-11-18 15:05:00,
2013-11-18 10:20:00,45.7,41.0,29.47,West,273,6.0,7.0,83,0.01,,,0.28,weatherlink.com 1.10,2013-11-18 15:20:00,
2013-11-18 10:35:00,45.7,40.0,29.47,West,264,4.0,9.0,81,0.00,,,0.28,weatherlink.com 1.10,2013-11-18 15:35:00,
2013-11-18 10:50:00,45.8,40.0,29.46,SSW,200,2.0,8.0,80,0.00,,,0.28,weatherlink.com 1.10,2013-11-18 15:50:00,
2013-11-18 11:05:00,45.8,41.0,29.46,West,269,5.0,5.0,82,0.00,,,0.28,weatherlink.com 1.10,2013-11-18 16:05:00,
2013-11-18 11:20:00,46.3,40.0,29.46,West,264,0.0,13.0,80,0.00,,,0.28,weatherlink.com 1.10,2013-11-18 16:20:00,
2013-11-18 11:35:00,46.5,40.0,29.45,SSW,201,3.0,8.0,78,0.00,,,0.28,weatherlink.com 1.10,2013-11-18 16:35:00,
2013-11-18 11:50:00,47.0,40.0,29.45,SW,233,4.0,5.0,77,0.00,,,0.28,weatherlink.com 1.10,2013-11-18 16:50:00,
2013-11-18 12:05:00,48.6,40.0,29.45,West,269,4.0,8.0,73,0.00,,,0.28,weatherlink.com 1.10,2013-11-18 17:05:00,
2013-11-18 12:20:00,48.8,40.0,29.45,SSW,194,2.0,6.0,72,0.00,,,0.28,weatherlink.com 1.10,2013-11-18 17:20:00,
2013-11-18 12:35:00,48.0,39.0,29.46,South,188,3.0,9.0,71,0.00,,,0.28,weatherlink.com 1.10,2013-11-18 17:35:00,
2013-11-18 12:50:00,47.7,38.0,29.47,SSW,202,2.0,6.0,69,0.00,,,0.28,weatherlink.com 1.10,2013-11-18 17:50:00,
2013-11-18 13:05:00,47.7,38.0,29.47,ESE,114,6.0,9.0,68,0.00,,,0.28,weatherlink.com 1.10,2013-11-18 18:05:00,
2013-11-18 13:20:00,47.6,37.0,29.48,West,259,4.0,12.0,66,0.00,,,0.28,weatherlink.com 1.10,2013-11-18 18:20:00,
2013-11-18 13:35:00,47.3,36.0,29.48,West,271,5.0,10.0,66,0.00,,,0.28,weatherlink.com 1.10,2013-11-18 18:35:00,
2013-11-18 13:50:00,46.9,38.0,29.48,West,281,4.0,6.0,72,0.00,,,0.28,weatherlink.com 1.10,2013-11-18 18:50:00,
2013-11-18 14:05:00,46.8,38.0,29.48,West,270,3.0,8.0,72,0.00,,,0.28,weatherlink.com 1.10,2013-11-18 19:05:00,
2013-11-18 14:20:00,46.9,38.0,29.49,West,269,2.0,9.0,72,0.00,,,0.28,weatherlink.com 1.10,2013-11-18 19:20:00,
2013-11-18 14:35:00,47.1,37.0,29.50,West,271,5.0,7.0,69,0.00,,,0.28,weatherlink.com 1.10,2013-11-18 19:35:00,
2013-11-18 14:50:00,47.0,38.0,29.50,SSW,201,2.0,8.0,71,0.00,,,0.28,weatherlink.com 1.10,2013-11-18 19:50:00,
2013-11-18 15:05:00,46.6,34.0,29.49,WNW,285,6.0,12.0,62,0.00,,,0.28,weatherlink.com 1.10,2013-11-18 20:05:00,
2013-11-18 15:20:00,46.2,34.0,29.50,West,259,3.0,10.0,62,0.00,,,0.28,weatherlink.com 1.10,2013-11-18 20:20:00,
2013-11-18 15:35:00,45.7,33.0,29.50,SSW,194,6.0,8.0,62,0.00,,,0.28,weatherlink.com 1.10,2013-11-18 20:35:00,
2013-11-18 15:50:00,44.9,32.0,29.51,WSW,255,3.0,6.0,62,0.00,,,0.28,weatherlink.com 1.10,2013-11-18 20:50:00,
2013-11-18 16:05:00,44.5,32.0,29.51,SSW,197,1.0,11.0,62,0.00,,,0.28,weatherlink.com 1.10,2013-11-18 21:05:00,
2013-11-18 16:20:00,44.1,32.0,29.51,WSW,242,5.0,7.0,62,0.00,,,0.28,weatherlink.com 1.10,2013-11-18 21:20:00,
2013-11-18 16:36:00,44.1,31.0,29.52,East,86,4.0,7.0,61,0.00,,,0.28,weatherlink.com 1.10,2013-11-18 21:36:00,
2013-11-18 16:51:00,43.8,32.0,29.52,WSW,239,6.0,6.0,64,0.00,,,0.28,weatherlink.com 1.10,2013-11-18 21:51:00,
2013-11-18 17:06:00,44.0,32.0,29.53,WNW,290,5.0,11.0,64,0.00,,,0.28,weatherlink.com 1.10,2013-11-18 22:06:00,
2013-11-18 17:21:00,43.1,34.0,29.55,SSW,200,2.0,5.0,69,0.00,,,0.28,weatherlink.com 1.10,2013-11-18 22:21:00,
2013-11-18 17:36:00,42.6,34.0,29.55,West,259,2.0,12.0,71,0.00,,,0.28,weatherlink.com 1.10,2013-11-18 22:36:00,
2013-11-18 17:51:00,41.7,34.0,29.55,WNW,288,4.0,9.0,74,0.00,,,0.28,weatherlink.com 1.10,2013-11-18 22:51:00,
2013-11-18 18:06:00,40.8,33.0,29.55,West,274,3.0,11.0,74,0.00,,,0.28,weatherlink.com 1.10,2013-11-18 23:06:00,
2013-11-18 18:21:00,40.2,33.0,29.56,WNW,300,2.0,11.0,74,0.00,,,0.28,weatherlink.com 1.10,2013-11-18 23:21:00,
2013-11-18 18:36:00,40.0,32.0,29.56,West,262,3.0,8.0,73,0.00,,,0.28,weatherlink.com 1.10,2013-11-18 23:36:00,
2013-11-18 18:51:00,39.9,32.0,29.56,SSW,208,2.0,7.0,74,0.00,,,0.28,weatherlink.com 1.10,2013-11-18 23:51:00,
2013-11-18 19:06:00,39.1,32.0,29.56,South,172,0.0,6.0,76,0.00,,,0.28,weatherlink.com 1.10,2013-11-19 00:06:00,
2013-11-18 19:21:00,38.6,32.0,29.57,South,173,3.0,9.0,78,0.00,,,0.28,weatherlink.com 1.10,2013-11-19 00:21:00,
2013-11-18 19:36:00,38.5,33.0,29.57,SSW,210,1.0,5.0,79,0.00,,,0.28,weatherlink.com 1.10,2013-11-19 00:36:00,
2013-11-18 19:51:00,38.6,33.0,29.57,WNW,294,1.0,7.0,79,0.00,,,0.28,weatherlink.com 1.10,2013-11-19 00:51:00,
2013-11-18 20:06:00,38.7,33.0,29.58,West,274,0.0,7.0,79,0.00,,,0.28,weatherlink.com 1.10,2013-11-19 01:06:00,
2013-11-18 20:21:00,38.6,33.0,29.59,SSE,163,2.0,8.0,80,0.00,,,0.28,weatherlink.com 1.10,2013-11-19 01:21:00,
2013-11-18 20:36:00,38.3,32.0,29.58,SSW,199,1.0,7.0,79,0.00,,,0.28,weatherlink.com 1.10,2013-11-19 01:36:00,
2013-11-18 20:51:00,38.0,32.0,29.59,ESE,113,7.0,7.0,79,0.00,,,0.28,weatherlink.com 1.10,2013-11-19 01:51:00,
2013-11-18 21:06:00,37.9,32.0,29.59,West,259,3.0,10.0,79,0.00,,,0.28,weatherlink.com 1.10,2013-11-19 02:06:00,
2013-11-18 21:21:00,37.7,31.0,29.59,SSE,167,3.0,7.0,77,0.00,,,0.28,weatherlink.com 1.10,2013-11-19 02:21:00,
2013-11-18 21:36:00,37.6,31.0,29.57,West,259,2.0,8.0,77,0.00,,,0.28,weatherlink.com 1.10,2013-11-19 02:36:00,
2013-11-18 21:51:00,37.4,31.0,29.58,SW,236,2.0,5.0,78,0.00,,,0.28,weatherlink.com 1.10,2013-11-19 02:51:00,
2013-11-18 22:06:00,37.4,30.0,29.57,West,281,3.0,9.0,76,0.00,,,0.28,weatherlink.com 1.10,2013-11-19 03:06:00,
2013-11-18 22:21:00,37.5,31.0,29.58,SSW,194,6.0,10.0,77,0.00,,,0.28,weatherlink.com 1.10,2013-11-19 03:21:00,
2013-11-18 22:36:00,37.2,31.0,29.59,SSW,193,2.0,6.0,77,0.00,,,0.28,weatherlink.com 1.10,2013-11-19 03:36:00,
2013-11-18 22:51:00,36.9,30.0,29.60,WNW,297,0.0,9.0,75,0.00,,,0.28,weatherlink.com 1.10,2013-11-19 03:51:00,
2013-11-18 23:07:00,36.4,30.0,29.61,SE,143,3.0,5.0,76,0.00,,,0.28,weatherlink.com 1.10,2013-11-19 04:07:00,
2013-11-18 23:22:00,35.9,30.0,29.61,WSW,257,2.0,4.0,78,0.00,,,0.28,weatherlink.com 1.10,2013-11-19 04:22:00,
2013-11-18 23:37:00,35.5,29.0,29.61,SSW,192,8.0,8.0,78,0.00,,,0.28,weatherlink.com 1.10,2013-11-19 04:37:00,
2013-11-18 23:52:00,34.8,29.0,29.60,West,266,3.0,6.0,79,0.00,,,0.28,weatherlink.com 1.10,2013-11-19 04:52:00,